Time;durP1;ratioP1;P1;durP2;ratioP2;P2;SDS_P1;SDS_P2;PMS_P1;PMS_P2;Temp;Humidity;BMP_temperature;BMP_pressure;BME280_temperature;BME280_humidity;BME280_pressure;Samples;Min_cycle;Max_cycle;Signal;HPM_P1;HPM_P2
2022/04/08 00:00:27;;;;;;;4.90;1.00;;;;;;;;;;5053803;28;20230;-19
2022/04/08 00:02:55;;;;;;;7.03;1.50;;;;;;;;;;5053407;28;20222;-19
2022/04/08 00:05:22;;;;;;;13.40;1.10;;;;;;;;;;5048239;28;20281;-19
2022/04/08 00:07:49;;;;;;;9.80;1.45;;;;;;;;;;5054010;28;20226;-19
2022/04/08 00:10:18;;;;;;;5.65;1.15;;;;;;;;;;5053379;28;20226;-19
2022/04/08 00:12:45;;;;;;;4.68;1.13;;;;;;;;;;5053550;28;20234;-19
2022/04/08 00:15:14;;;;;;;3.75;1.25;;;;;;;;;;5053534;28;20233;-19
2022/04/08 00:17:41;;;;;;;7.13;1.02;;;;;;;;;;5053651;28;20230;-20
2022/04/08 00:20:09;;;;;;;4.40;1.05;;;;;;;;;;5061385;28;20237;-19
2022/04/08 00:22:39;;;;;;;3.10;1.00;;;;;;;;;;5063852;28;20261;-19
2022/04/08 00:25:07;;;;;;;4.40;0.95;;;;;;;;;;5054056;28;20612;-19
2022/04/08 00:27:34;;;;;;;4.30;1.17;;;;;;;;;;5053937;28;20237;-19
2022/04/08 00:30:01;;;;;;;3.70;0.90;;;;;;;;;;5054058;28;20226;-19
2022/04/08 00:32:30;;;;;;;7.30;1.00;;;;;;;;;;5072032;28;20263;-19
2022/04/08 00:34:58;;;;;;;3.30;1.02;;;;;;;;;;5074563;28;20218;-19
2022/04/08 00:37:26;;;;;;;3.58;0.90;;;;;;;;;;5073948;28;20793;-19
2022/04/08 00:39:54;;;;;;;4.20;1.13;;;;;;;;;;5061264;28;20237;-19
2022/04/08 00:42:21;;;;;;;5.90;1.00;;;;;;;;;;5052671;28;20660;-19
2022/04/08 00:44:48;;;;;;;4.10;0.93;;;;;;;;;;5053841;28;20233;-19
2022/04/08 00:47:16;;;;;;;5.45;1.08;;;;;;;;;;5035063;28;20995;-19
2022/04/08 00:49:44;;;;;;;3.13;1.23;;;;;;;;;;5033821;28;20223;-19
2022/04/08 00:52:12;;;;;;;1.23;0.60;;;;;;;;;;5034180;28;20230;-19
2022/04/08 00:54:39;;;;;;;4.65;1.10;;;;;;;;;;5073875;28;20958;-19
2022/04/08 00:57:06;;;;;;;2.90;0.77;;;;;;;;;;5074174;28;20233;-19
2022/04/08 00:59:34;;;;;;;5.38;0.68;;;;;;;;;;5073642;28;20817;-19
2022/04/08 01:02:01;;;;;;;2.92;0.68;;;;;;;;;;5041164;28;20234;-19
2022/04/08 01:04:29;;;;;;;1.70;0.40;;;;;;;;;;5043031;28;20246;-19
2022/04/08 01:06:57;;;;;;;2.25;0.70;;;;;;;;;;5048155;28;20234;-19
2022/04/08 01:09:25;;;;;;;4.38;0.80;;;;;;;;;;5038809;28;20718;-19
2022/04/08 01:11:52;;;;;;;4.55;0.75;;;;;;;;;;5050873;28;20244;-19
2022/04/08 01:14:19;;;;;;;1.58;0.47;;;;;;;;;;5051767;28;20249;-19
2022/04/08 01:16:47;;;;;;;2.35;0.60;;;;;;;;;;5051398;28;20457;-19
2022/04/08 01:19:14;;;;;;;2.20;0.65;;;;;;;;;;5050037;28;20226;-19
2022/04/08 01:21:41;;;;;;;3.03;0.65;;;;;;;;;;5052655;28;20249;-19
2022/04/08 01:24:12;;;;;;;2.97;0.82;;;;;;;;;;5052618;28;20230;-19
2022/04/08 01:26:41;;;;;;;2.58;0.77;;;;;;;;;;5050952;28;20234;-19
2022/04/08 01:29:08;;;;;;;5.47;0.80;;;;;;;;;;5051261;28;20228;-19
2022/04/08 01:31:36;;;;;;;2.97;0.80;;;;;;;;;;5050018;28;20591;-19
2022/04/08 01:34:03;;;;;;;4.13;0.77;;;;;;;;;;5052056;28;20234;-19
2022/04/08 01:36:31;;;;;;;2.65;0.60;;;;;;;;;;5051634;28;20337;-19
2022/04/08 01:38:58;;;;;;;3.80;1.00;;;;;;;;;;5052711;28;20238;-19
2022/04/08 01:41:28;;;;;;;3.78;1.10;;;;;;;;;;5052713;28;20308;-19
2022/04/08 01:43:56;;;;;;;5.03;1.05;;;;;;;;;;5052684;28;20238;-19
2022/04/08 01:46:24;;;;;;;2.80;0.82;;;;;;;;;;5051840;28;20223;-19
2022/04/08 01:48:54;;;;;;;1.67;0.60;;;;;;;;;;5052602;28;20226;-19
2022/04/08 01:51:22;;;;;;;3.90;0.55;;;;;;;;;;5052288;28;20246;-19
2022/04/08 01:53:49;;;;;;;2.92;0.63;;;;;;;;;;5052163;28;20241;-19
2022/04/08 01:56:16;;;;;;;2.78;0.80;;;;;;;;;;5051745;28;20242;-19
2022/04/08 01:58:44;;;;;;;5.15;1.00;;;;;;;;;;5051783;28;20245;-19
2022/04/08 02:01:12;;;;;;;3.28;0.85;;;;;;;;;;5047216;28;20244;-19
2022/04/08 02:03:40;;;;;;;3.05;0.82;;;;;;;;;;5048457;28;20230;-19
2022/04/08 02:06:07;;;;;;;1.65;0.60;;;;;;;;;;5052070;28;20238;-19
2022/04/08 02:08:35;;;;;;;2.40;0.90;;;;;;;;;;5051590;28;20238;-19
2022/04/08 02:11:02;;;;;;;1.77;0.70;;;;;;;;;;5052247;28;20257;-19
2022/04/08 02:13:29;;;;;;;3.88;0.98;;;;;;;;;;5051939;28;20229;-19
2022/04/08 02:15:57;;;;;;;3.78;1.10;;;;;;;;;;5050911;28;20231;-19
2022/04/08 02:18:25;;;;;;;2.17;0.85;;;;;;;;;;5052031;28;20333;-19
2022/04/08 02:20:53;;;;;;;2.33;0.75;;;;;;;;;;5096653;22;20238;-18
2022/04/08 02:23:20;;;;;;;2.58;0.77;;;;;;;;;;5175642;27;20677;-17
2022/04/08 02:25:47;;;;;;;2.85;0.70;;;;;;;;;;5176415;27;20233;-17
2022/04/08 02:28:15;;;;;;;1.88;0.63;;;;;;;;;;5172202;27;20670;-17
2022/04/08 02:30:42;;;;;;;4.00;0.85;;;;;;;;;;5175146;27;20320;-17
2022/04/08 02:33:09;;;;;;;3.65;0.80;;;;;;;;;;5174642;27;20225;-17
2022/04/08 02:35:38;;;;;;;3.13;0.82;;;;;;;;;;5174831;27;21286;-17
2022/04/08 02:38:06;;;;;;;3.15;0.90;;;;;;;;;;5174362;27;20245;-18
2022/04/08 02:40:33;;;;;;;3.42;0.80;;;;;;;;;;5174629;27;20994;-17
2022/04/08 02:43:01;;;;;;;1.67;0.70;;;;;;;;;;5173140;27;20218;-17
2022/04/08 02:45:28;;;;;;;4.13;1.10;;;;;;;;;;5173164;27;20224;-17
2022/04/08 02:47:56;;;;;;;5.03;0.60;;;;;;;;;;5174361;27;20233;-17
2022/04/08 02:50:23;;;;;;;3.05;0.68;;;;;;;;;;5174728;27;20883;-17
2022/04/08 02:52:52;;;;;;;2.15;0.82;;;;;;;;;;5174145;27;20615;-17
2022/04/08 02:55:19;;;;;;;2.40;0.85;;;;;;;;;;5174542;27;20252;-17
2022/04/08 02:57:47;;;;;;;3.20;0.80;;;;;;;;;;5174515;27;20240;-17
2022/04/08 03:00:15;;;;;;;4.10;1.00;;;;;;;;;;5174634;27;20739;-17
2022/04/08 03:02:43;;;;;;;6.15;1.13;;;;;;;;;;5174830;27;20222;-17
2022/04/08 03:05:10;;;;;;;7.47;0.80;;;;;;;;;;5173709;27;20234;-17
2022/04/08 03:07:37;;;;;;;2.47;0.73;;;;;;;;;;5174446;27;20233;-17
2022/04/08 03:10:07;;;;;;;2.78;0.75;;;;;;;;;;5174769;27;20359;-17
2022/04/08 03:12:34;;;;;;;3.00;0.85;;;;;;;;;;5175654;27;20224;-17
2022/04/08 03:15:02;;;;;;;4.93;0.90;;;;;;;;;;5174381;27;20302;-17
2022/04/08 03:17:29;;;;;;;2.20;0.85;;;;;;;;;;5165402;27;20244;-17
2022/04/08 03:19:57;;;;;;;4.28;0.77;;;;;;;;;;5175598;27;20233;-17
2022/04/08 03:22:25;;;;;;;3.22;0.73;;;;;;;;;;5168670;27;20242;-17
2022/04/08 03:24:52;;;;;;;2.70;0.75;;;;;;;;;;5160564;27;20238;-17
2022/04/08 03:27:21;;;;;;;3.45;0.70;;;;;;;;;;5157219;27;20222;-17
2022/04/08 03:29:48;;;;;;;3.58;1.00;;;;;;;;;;5163441;27;20233;-17
2022/04/08 03:32:16;;;;;;;2.70;0.80;;;;;;;;;;5159386;27;20233;-18
2022/04/08 03:34:43;;;;;;;3.20;1.02;;;;;;;;;;5158683;27;20669;-17
2022/04/08 03:37:11;;;;;;;2.28;0.70;;;;;;;;;;5153811;27;20243;-17
2022/04/08 03:39:38;;;;;;;2.75;1.00;;;;;;;;;;5164233;27;20222;-18
2022/04/08 03:42:06;;;;;;;3.45;0.85;;;;;;;;;;5162145;27;20988;-17
2022/04/08 03:44:34;;;;;;;4.43;0.90;;;;;;;;;;5164238;27;20215;-17
2022/04/08 03:47:02;;;;;;;3.22;1.00;;;;;;;;;;5162641;27;20225;-17
2022/04/08 03:49:32;;;;;;;3.78;1.20;;;;;;;;;;5162869;27;20226;-17
2022/04/08 03:52:00;;;;;;;3.58;0.90;;;;;;;;;;5161591;27;20219;-17
2022/04/08 03:54:27;;;;;;;6.35;1.33;;;;;;;;;;5163279;27;20234;-17
2022/04/08 03:56:55;;;;;;;5.57;1.20;;;;;;;;;;5161357;27;20230;-17
2022/04/08 03:59:22;;;;;;;5.25;1.00;;;;;;;;;;5155323;27;20226;-17
2022/04/08 04:01:51;;;;;;;2.33;0.75;;;;;;;;;;5161105;27;20244;-17
2022/04/08 04:04:19;;;;;;;4.40;0.80;;;;;;;;;;5164550;27;20221;-17
2022/04/08 04:06:47;;;;;;;5.28;1.00;;;;;;;;;;5164091;27;20226;-17
2022/04/08 04:09:14;;;;;;;4.00;1.10;;;;;;;;;;5160253;27;20223;-17
2022/04/08 04:11:41;;;;;;;4.82;1.00;;;;;;;;;;5161181;27;20218;-17
2022/04/08 04:14:09;;;;;;;4.00;0.90;;;;;;;;;;5161304;27;20981;-17
2022/04/08 04:16:36;;;;;;;4.70;1.00;;;;;;;;;;5161339;27;20231;-17
2022/04/08 04:19:05;;;;;;;2.80;1.10;;;;;;;;;;5163885;27;20274;-17
2022/04/08 04:21:33;;;;;;;5.03;0.90;;;;;;;;;;5162597;27;20249;-17
2022/04/08 04:24:00;;;;;;;3.88;0.80;;;;;;;;;;5162010;27;20222;-17
2022/04/08 04:26:27;;;;;;;3.83;1.02;;;;;;;;;;5163300;27;20233;-17
2022/04/08 04:28:55;;;;;;;5.28;1.17;;;;;;;;;;5163291;27;20224;-17
2022/04/08 04:31:22;;;;;;;3.70;1.08;;;;;;;;;;5160190;27;20236;-17
2022/04/08 04:33:49;;;;;;;4.07;1.15;;;;;;;;;;5160164;27;20227;-17
2022/04/08 04:36:18;;;;;;;3.63;1.08;;;;;;;;;;5160070;27;20226;-18
2022/04/08 04:38:45;;;;;;;3.40;1.00;;;;;;;;;;5165425;27;20969;-17
2022/04/08 04:41:13;;;;;;;3.13;1.00;;;;;;;;;;5167320;27;20309;-17
2022/04/08 04:43:40;;;;;;;4.15;0.82;;;;;;;;;;5161585;27;20226;-17
2022/04/08 04:46:07;;;;;;;2.67;0.90;;;;;;;;;;5163363;27;20215;-17
2022/04/08 04:48:35;;;;;;;6.20;0.82;;;;;;;;;;5168205;27;20216;-17
2022/04/08 04:51:02;;;;;;;3.83;0.90;;;;;;;;;;5166672;27;20231;-17
2022/04/08 04:53:31;;;;;;;3.67;1.00;;;;;;;;;;5164121;27;20223;-17
2022/04/08 04:55:59;;;;;;;2.33;0.77;;;;;;;;;;5169001;27;21058;-17
2022/04/08 04:58:26;;;;;;;4.93;1.20;;;;;;;;;;5161608;27;20241;-17
2022/04/08 05:00:53;;;;;;;4.28;0.93;;;;;;;;;;5162000;27;20230;-17
2022/04/08 05:03:21;;;;;;;3.60;0.82;;;;;;;;;;5160578;27;20234;-17
2022/04/08 05:05:48;;;;;;;4.60;1.15;;;;;;;;;;5162791;27;20241;-17
2022/04/08 05:08:16;;;;;;;2.30;0.90;;;;;;;;;;5161096;27;20229;-18
2022/04/08 05:10:44;;;;;;;4.53;0.77;;;;;;;;;;5160005;27;20231;-17
2022/04/08 05:13:12;;;;;;;3.35;1.05;;;;;;;;;;5161675;27;20704;-17
2022/04/08 05:15:42;;;;;;;3.33;1.02;;;;;;;;;;5158774;27;20249;-17
2022/04/08 05:18:10;;;;;;;5.18;0.90;;;;;;;;;;5162752;27;20696;-18
2022/04/08 05:20:37;;;;;;;3.30;1.02;;;;;;;;;;5162178;27;20234;-17
2022/04/08 05:23:04;;;;;;;5.00;0.82;;;;;;;;;;5165020;27;20233;-17
2022/04/08 05:25:32;;;;;;;2.35;0.80;;;;;;;;;;5155424;27;20223;-18
2022/04/08 05:28:00;;;;;;;3.03;0.90;;;;;;;;;;5160898;27;20230;-18
2022/04/08 05:30:28;;;;;;;3.85;1.00;;;;;;;;;;5155585;27;20230;-17
2022/04/08 05:32:56;;;;;;;3.45;0.70;;;;;;;;;;5161316;27;20293;-18
2022/04/08 05:35:23;;;;;;;3.72;1.15;;;;;;;;;;5155777;27;20223;-17
2022/04/08 05:37:50;;;;;;;2.83;0.70;;;;;;;;;;5158292;27;20230;-17
2022/04/08 05:40:18;;;;;;;3.38;0.98;;;;;;;;;;5162753;27;20744;-17
2022/04/08 05:42:46;;;;;;;2.22;0.70;;;;;;;;;;5145388;27;20239;-17
2022/04/08 05:45:16;;;;;;;2.10;0.70;;;;;;;;;;5147282;27;20578;-18
2022/04/08 05:47:44;;;;;;;2.65;0.73;;;;;;;;;;5148454;27;20786;-17
2022/04/08 05:50:12;;;;;;;2.95;0.73;;;;;;;;;;5161166;27;20240;-18
2022/04/08 05:52:40;;;;;;;3.42;0.70;;;;;;;;;;5162864;27;20218;-17
2022/04/08 05:55:07;;;;;;;6.78;0.90;;;;;;;;;;5162756;27;20206;-18
2022/04/08 05:57:35;;;;;;;2.78;0.75;;;;;;;;;;5167103;27;20231;-17
2022/04/08 06:00:03;;;;;;;2.08;0.80;;;;;;;;;;5164190;27;20235;-17
2022/04/08 06:02:32;;;;;;;2.08;0.90;;;;;;;;;;5162722;27;20222;-17
2022/04/08 06:05:00;;;;;;;2.33;0.90;;;;;;;;;;5163487;27;20215;-17
2022/04/08 06:07:27;;;;;;;1.20;0.60;;;;;;;;;;5165126;27;20309;-17
2022/04/08 06:09:56;;;;;;;3.78;0.95;;;;;;;;;;5162779;27;20231;-17
2022/04/08 06:12:23;;;;;;;2.40;0.60;;;;;;;;;;5164820;27;20748;-17
2022/04/08 06:14:50;;;;;;;2.75;0.80;;;;;;;;;;5162126;27;20233;-18
2022/04/08 06:17:18;;;;;;;1.80;0.63;;;;;;;;;;5164807;27;20257;-18
2022/04/08 06:19:49;;;;;;;4.32;0.93;;;;;;;;;;5166636;27;20231;-18
2022/04/08 06:22:16;;;;;;;6.00;0.75;;;;;;;;;;5167466;27;20237;-18
2022/04/08 06:24:43;;;;;;;4.05;0.70;;;;;;;;;;5163421;27;20251;-17
2022/04/08 06:27:10;;;;;;;6.07;1.00;;;;;;;;;;5157251;27;20238;-17
2022/04/08 06:29:38;;;;;;;4.35;0.85;;;;;;;;;;5162006;27;20234;-17
2022/04/08 06:32:05;;;;;;;5.00;1.08;;;;;;;;;;5152413;27;20234;-17
2022/04/08 06:34:33;;;;;;;6.30;0.75;;;;;;;;;;5146492;27;20230;-17
2022/04/08 06:37:02;;;;;;;4.25;0.80;;;;;;;;;;5156863;27;20241;-17
2022/04/08 06:39:29;;;;;;;3.95;1.10;;;;;;;;;;5159946;27;20271;-17
2022/04/08 06:41:56;;;;;;;3.88;0.80;;;;;;;;;;5160794;27;20222;-17
2022/04/08 06:44:24;;;;;;;4.78;1.05;;;;;;;;;;5153991;27;20231;-17
2022/04/08 06:46:51;;;;;;;3.25;0.90;;;;;;;;;;5151530;27;20287;-17
2022/04/08 06:49:20;;;;;;;4.95;1.20;;;;;;;;;;5160150;27;20234;-17
2022/04/08 06:51:47;;;;;;;4.07;1.08;;;;;;;;;;5153573;27;20226;-17
2022/04/08 06:54:17;;;;;;;3.17;0.77;;;;;;;;;;5157617;27;20229;-17
2022/04/08 06:56:44;;;;;;;3.28;0.93;;;;;;;;;;5158812;27;20230;-17
2022/04/08 06:59:12;;;;;;;2.65;0.77;;;;;;;;;;5154135;27;20235;-17
2022/04/08 07:01:39;;;;;;;6.75;1.33;;;;;;;;;;5162146;27;20249;-17
2022/04/08 07:04:06;;;;;;;8.45;0.80;;;;;;;;;;5155926;27;20241;-17
2022/04/08 07:06:34;;;;;;;4.00;1.08;;;;;;;;;;5156961;27;20235;-17
2022/04/08 07:09:01;;;;;;;10.18;1.40;;;;;;;;;;5163045;27;20231;-17
2022/04/08 07:11:34;;;;;;;21.02;1.90;;;;;;;;;;5163927;27;20503;-17
2022/04/08 07:14:04;;;;;;;11.55;1.52;;;;;;;;;;5160367;27;20223;-18
2022/04/08 07:16:31;;;;;;;12.75;1.58;;;;;;;;;;5161380;27;20499;-18
2022/04/08 07:18:58;;;;;;;6.25;1.20;;;;;;;;;;5147975;27;20995;-17
2022/04/08 07:21:26;;;;;;;10.43;1.60;;;;;;;;;;5160260;27;20238;-17
2022/04/08 07:23:53;;;;;;;7.13;1.38;;;;;;;;;;5158315;27;20463;-18
2022/04/08 07:26:21;;;;;;;6.72;1.02;;;;;;;;;;5167148;27;20265;-17
2022/04/08 07:28:49;;;;;;;4.77;1.10;;;;;;;;;;5148499;27;20817;-17
2022/04/08 07:31:17;;;;;;;8.95;1.25;;;;;;;;;;5151466;27;20233;-18
2022/04/08 07:33:44;;;;;;;7.80;1.45;;;;;;;;;;5145195;27;20322;-17
2022/04/08 07:36:12;;;;;;;7.65;1.10;;;;;;;;;;5142864;27;21190;-18
2022/04/08 07:38:39;;;;;;;7.25;1.38;;;;;;;;;;5149306;27;20237;-18
2022/04/08 07:41:06;;;;;;;7.30;1.30;;;;;;;;;;5149240;27;20242;-17
2022/04/08 07:43:34;;;;;;;4.70;1.10;;;;;;;;;;5145087;27;20233;-18
2022/04/08 07:46:02;;;;;;;6.72;1.30;;;;;;;;;;5144169;27;20426;-18
2022/04/08 07:48:31;;;;;;;5.95;1.48;;;;;;;;;;5149863;27;20226;-18
2022/04/08 07:50:58;;;;;;;6.85;1.20;;;;;;;;;;5148759;27;20431;-18
2022/04/08 07:53:26;;;;;;;7.72;1.40;;;;;;;;;;5146076;27;20282;-18
2022/04/08 07:55:53;;;;;;;12.35;1.63;;;;;;;;;;5152101;27;20258;-18
2022/04/08 07:58:20;;;;;;;8.50;1.40;;;;;;;;;;5154486;27;20218;-18
2022/04/08 08:00:48;;;;;;;9.82;1.30;;;;;;;;;;5153656;27;20981;-18
2022/04/08 08:03:19;;;;;;;5.25;1.20;;;;;;;;;;5152506;27;20234;-18
2022/04/08 08:05:47;;;;;;;8.30;1.30;;;;;;;;;;5153881;27;20226;-18
2022/04/08 08:08:14;;;;;;;9.30;1.30;;;;;;;;;;5153611;27;20253;-18
2022/04/08 08:10:46;;;;;;;7.45;1.13;;;;;;;;;;5154773;27;21059;-19
2022/04/08 08:13:13;;;;;;;4.43;1.30;;;;;;;;;;5156329;27;20237;-18
2022/04/08 08:15:41;;;;;;;4.50;1.00;;;;;;;;;;5151946;27;20696;-19
2022/04/08 08:18:09;;;;;;;8.45;1.67;;;;;;;;;;5155695;27;20236;-18
2022/04/08 08:20:37;;;;;;;13.77;1.60;;;;;;;;;;5152130;27;20243;-18
2022/04/08 08:23:06;;;;;;;4.88;1.33;;;;;;;;;;5158002;27;20241;-18
2022/04/08 08:25:33;;;;;;;4.72;1.20;;;;;;;;;;5154895;27;20231;-18
2022/04/08 08:28:01;;;;;;;6.10;1.27;;;;;;;;;;5157180;27;20231;-19
2022/04/08 08:30:30;;;;;;;7.25;1.65;;;;;;;;;;5153209;27;20328;-18
2022/04/08 08:32:57;;;;;;;7.40;0.98;;;;;;;;;;5159077;27;20233;-18
2022/04/08 08:35:26;;;;;;;3.95;1.10;;;;;;;;;;5160000;27;20234;-18
2022/04/08 08:37:59;;;;;;;3.67;1.05;;;;;;;;;;5159838;27;20262;-18
2022/04/08 08:40:27;;;;;;;5.60;1.10;;;;;;;;;;5153226;27;20242;-18
2022/04/08 08:42:54;;;;;;;9.40;1.00;;;;;;;;;;5152728;27;20725;-18
2022/04/08 08:45:22;;;;;;;6.47;1.27;;;;;;;;;;5159564;27;20218;-18
2022/04/08 08:47:51;;;;;;;5.78;1.30;;;;;;;;;;5151776;27;20261;-18
2022/04/08 08:50:19;;;;;;;7.05;1.23;;;;;;;;;;5157986;27;20357;-18
2022/04/08 08:52:49;;;;;;;4.47;1.15;;;;;;;;;;5154732;27;20603;-18
2022/04/08 08:55:18;;;;;;;9.40;1.70;;;;;;;;;;5152608;27;20226;-18
2022/04/08 08:57:47;;;;;;;5.55;1.25;;;;;;;;;;5156402;27;20237;-18
2022/04/08 09:00:18;;;;;;;5.00;1.38;;;;;;;;;;5153498;27;20234;-18
2022/04/08 09:02:48;;;;;;;5.22;1.20;;;;;;;;;;5153873;27;20231;-18
2022/04/08 09:05:16;;;;;;;3.05;1.30;;;;;;;;;;5152418;27;20713;-18
2022/04/08 09:07:43;;;;;;;4.72;1.33;;;;;;;;;;5159546;27;20233;-18
2022/04/08 09:10:10;;;;;;;5.28;1.10;;;;;;;;;;5151198;27;20261;-18
2022/04/08 09:12:39;;;;;;;11.73;1.70;;;;;;;;;;5155740;27;20226;-18
2022/04/08 09:15:09;;;;;;;7.10;1.25;;;;;;;;;;5150174;27;20321;-18
2022/04/08 09:17:36;;;;;;;4.68;1.30;;;;;;;;;;5154407;27;20238;-18
2022/04/08 09:20:05;;;;;;;7.07;1.73;;;;;;;;;;5152479;27;20888;-19
2022/04/08 09:22:33;;;;;;;6.18;1.35;;;;;;;;;;5153191;27;20243;-18
2022/04/08 09:25:09;;;;;;;4.50;1.50;;;;;;;;;;5156942;27;20701;-18
2022/04/08 09:27:37;;;;;;;9.75;1.25;;;;;;;;;;5145958;27;20728;-18
2022/04/08 09:30:07;;;;;;;4.32;1.40;;;;;;;;;;5153289;27;20788;-18
2022/04/08 09:32:35;;;;;;;5.25;1.20;;;;;;;;;;5151866;27;21427;-18
2022/04/08 09:35:02;;;;;;;9.75;1.50;;;;;;;;;;5157150;27;20419;-18
2022/04/08 09:37:29;;;;;;;4.75;1.25;;;;;;;;;;5153458;27;20595;-18
2022/04/08 09:39:57;;;;;;;6.80;1.13;;;;;;;;;;5155441;27;20230;-18
2022/04/08 09:42:25;;;;;;;4.78;1.20;;;;;;;;;;5149642;27;20423;-18
2022/04/08 09:44:52;;;;;;;4.43;1.15;;;;;;;;;;5154265;27;20230;-18
2022/04/08 09:47:21;;;;;;;7.87;1.40;;;;;;;;;;5153135;27;20407;-18
2022/04/08 09:49:48;;;;;;;3.92;1.20;;;;;;;;;;5150822;27;20944;-18
2022/04/08 09:52:16;;;;;;;8.70;1.30;;;;;;;;;;5151766;27;20222;-18
2022/04/08 09:54:44;;;;;;;6.25;1.30;;;;;;;;;;5155814;27;20422;-18
2022/04/08 09:57:14;;;;;;;3.83;1.00;;;;;;;;;;5153335;27;20237;-18
2022/04/08 09:59:41;;;;;;;4.22;1.00;;;;;;;;;;5147918;27;20735;-18
2022/04/08 10:02:22;;;;;;;5.93;1.13;;;;;;;;;;5152568;27;20230;-18
2022/04/08 10:05:04;;;;;;;4.35;0.98;;;;;;;;;;5149815;27;20230;-18
2022/04/08 10:07:31;;;;;;;3.55;0.80;;;;;;;;;;5154885;27;20230;-18
2022/04/08 10:10:00;;;;;;;3.30;1.02;;;;;;;;;;5152654;27;20227;-18
2022/04/08 10:12:28;;;;;;;4.88;1.40;;;;;;;;;;5152823;27;20239;-16
2022/04/08 10:14:57;;;;;;;4.75;1.05;;;;;;;;;;5154383;27;20235;-16
2022/04/08 10:17:26;;;;;;;3.92;1.10;;;;;;;;;;5149974;27;20694;-16
2022/04/08 10:19:54;;;;;;;4.20;0.98;;;;;;;;;;5153531;27;20234;-19
2022/04/08 10:22:21;;;;;;;4.30;1.15;;;;;;;;;;5154646;27;20242;-16
2022/04/08 10:24:52;;;;;;;5.38;1.00;;;;;;;;;;5155520;27;20300;-16
2022/04/08 10:27:27;;;;;;;7.40;1.40;;;;;;;;;;5152894;27;20235;-16
2022/04/08 10:29:54;;;;;;;3.15;1.00;;;;;;;;;;5155369;27;20230;-16
2022/04/08 10:32:22;;;;;;;5.97;1.23;;;;;;;;;;5142467;27;20227;-16
2022/04/08 10:34:52;;;;;;;4.28;1.20;;;;;;;;;;5139289;27;20234;-16
2022/04/08 10:37:20;;;;;;;4.40;0.97;;;;;;;;;;5150382;27;20411;-17
2022/04/08 10:39:56;;;;;;;2.72;0.95;;;;;;;;;;5153274;27;20235;-16
2022/04/08 10:42:23;;;;;;;5.97;1.00;;;;;;;;;;5153450;27;20238;-16
2022/04/08 10:44:50;;;;;;;6.97;0.80;;;;;;;;;;5146241;27;20245;-16
2022/04/08 10:47:20;;;;;;;5.20;1.15;;;;;;;;;;5150584;27;20820;-19
2022/04/08 10:49:52;;;;;;;2.70;0.85;;;;;;;;;;5148452;27;20237;-16
2022/04/08 10:52:21;;;;;;;4.13;1.25;;;;;;;;;;5148689;27;20708;-18
2022/04/08 10:54:49;;;;;;;4.57;1.02;;;;;;;;;;5146181;27;21164;-18
2022/04/08 10:57:27;;;;;;;4.43;1.35;;;;;;;;;;5140840;27;20650;-16
2022/04/08 10:59:55;;;;;;;4.95;0.82;;;;;;;;;;5153809;27;20218;-16
2022/04/08 11:02:22;;;;;;;9.73;1.33;;;;;;;;;;5153792;27;21199;-16
2022/04/08 11:04:49;;;;;;;8.10;1.15;;;;;;;;;;5150117;27;20239;-17
2022/04/08 11:07:19;;;;;;;7.00;1.30;;;;;;;;;;5152044;27;20693;-16
2022/04/08 11:09:46;;;;;;;9.02;1.17;;;;;;;;;;5155619;27;20235;-16
2022/04/08 11:12:14;;;;;;;3.70;1.20;;;;;;;;;;5154329;27;20222;-16
2022/04/08 11:14:41;;;;;;;3.78;1.00;;;;;;;;;;5155020;27;20719;-16
2022/04/08 11:17:08;;;;;;;4.38;1.20;;;;;;;;;;5148972;27;20230;-16
2022/04/08 11:19:36;;;;;;;5.93;1.50;;;;;;;;;;5153879;27;20222;-16
2022/04/08 11:22:11;;;;;;;5.60;1.23;;;;;;;;;;5150425;27;21445;-16
2022/04/08 11:24:41;;;;;;;8.25;1.35;;;;;;;;;;5149894;27;20236;-16
2022/04/08 11:27:10;;;;;;;3.85;1.10;;;;;;;;;;5151819;27;21019;-16
2022/04/08 11:29:37;;;;;;;5.63;1.88;;;;;;;;;;5152699;27;20226;-16
2022/04/08 11:32:08;;;;;;;6.75;1.52;;;;;;;;;;5152657;27;20236;-16
2022/04/08 11:34:36;;;;;;;8.73;1.48;;;;;;;;;;5156211;27;20320;-16
2022/04/08 11:37:03;;;;;;;10.38;2.08;;;;;;;;;;5149697;27;20238;-16
2022/04/08 11:39:31;;;;;;;7.40;1.58;;;;;;;;;;5147664;27;20243;-16
2022/04/08 11:42:02;;;;;;;9.55;1.60;;;;;;;;;;5151816;27;20854;-16
2022/04/08 11:44:29;;;;;;;8.55;1.67;;;;;;;;;;5150465;27;20240;-16
2022/04/08 11:47:04;;;;;;;9.43;1.80;;;;;;;;;;5150368;27;21029;-16
2022/04/08 11:49:32;;;;;;;5.05;2.00;;;;;;;;;;5151590;27;20238;-17
2022/04/08 11:52:03;;;;;;;8.80;1.85;;;;;;;;;;5158438;27;20222;-16
2022/04/08 11:54:34;;;;;;;8.48;1.70;;;;;;;;;;5155794;27;20237;-16
2022/04/08 11:57:04;;;;;;;13.38;2.30;;;;;;;;;;5158883;27;20227;-16
2022/04/08 11:59:32;;;;;;;4.05;1.42;;;;;;;;;;5156607;27;20222;-16
2022/04/08 12:01:59;;;;;;;15.23;1.70;;;;;;;;;;5155709;27;20249;-16
2022/04/08 12:04:27;;;;;;;5.38;1.50;;;;;;;;;;5159591;27;20291;-16
2022/04/08 12:06:54;;;;;;;6.85;1.52;;;;;;;;;;5157946;27;20242;-16
2022/04/08 12:09:21;;;;;;;11.27;1.48;;;;;;;;;;5154955;27;20226;-16
2022/04/08 12:11:53;;;;;;;2.63;1.00;;;;;;;;;;5152828;27;20234;-16
2022/04/08 12:14:22;;;;;;;5.70;1.70;;;;;;;;;;5152736;27;20223;-16
2022/04/08 12:16:51;;;;;;;10.00;1.77;;;;;;;;;;5155442;27;20419;-16
2022/04/08 12:19:19;;;;;;;3.47;1.30;;;;;;;;;;5153864;27;20230;-16
2022/04/08 12:22:01;;;;;;;10.50;1.58;;;;;;;;;;5153422;27;20307;-19
2022/04/08 12:24:29;;;;;;;8.52;1.50;;;;;;;;;;5154194;27;20657;-16
2022/04/08 12:26:56;;;;;;;8.55;1.80;;;;;;;;;;5156896;27;20512;-18
2022/04/08 12:29:29;;;;;;;7.70;1.90;;;;;;;;;;5155762;27;20251;-16
2022/04/08 12:31:57;;;;;;;9.45;1.58;;;;;;;;;;5156322;27;21118;-18
2022/04/08 12:34:25;;;;;;;8.00;1.80;;;;;;;;;;5153636;27;20457;-19
2022/04/08 12:36:52;;;;;;;4.38;1.45;;;;;;;;;;5156549;27;20233;-18
2022/04/08 12:39:19;;;;;;;5.22;1.98;;;;;;;;;;5154517;27;20230;-16
2022/04/08 12:41:47;;;;;;;7.60;1.80;;;;;;;;;;5159716;27;20253;-16
2022/04/08 12:44:15;;;;;;;10.15;1.30;;;;;;;;;;5151154;27;20317;-16
2022/04/08 12:46:44;;;;;;;4.53;1.15;;;;;;;;;;5154045;27;20222;-16
2022/04/08 12:49:12;;;;;;;6.25;1.63;;;;;;;;;;5152279;27;20237;-16
2022/04/08 12:51:39;;;;;;;6.22;1.40;;;;;;;;;;5154746;27;20303;-16
2022/04/08 12:54:07;;;;;;;10.38;2.00;;;;;;;;;;5155223;27;20227;-16
2022/04/08 12:56:35;;;;;;;4.90;1.48;;;;;;;;;;5157005;27;20238;-16
2022/04/08 12:59:02;;;;;;;3.83;1.70;;;;;;;;;;5155295;27;20234;-17
2022/04/08 13:01:29;;;;;;;5.18;1.40;;;;;;;;;;5151894;27;20244;-19
2022/04/08 13:03:59;;;;;;;11.02;1.63;;;;;;;;;;5152438;27;20272;-16
2022/04/08 13:06:30;;;;;;;6.13;1.63;;;;;;;;;;5150431;27;20226;-17
2022/04/08 13:08:57;;;;;;;5.43;1.50;;;;;;;;;;5157307;27;20227;-16
2022/04/08 13:11:25;;;;;;;7.97;2.13;;;;;;;;;;5158164;27;20869;-17
2022/04/08 13:13:53;;;;;;;5.82;1.50;;;;;;;;;;5155222;27;20353;-16
2022/04/08 13:16:20;;;;;;;10.98;1.60;;;;;;;;;;5152009;27;20268;-16
2022/04/08 13:18:48;;;;;;;4.70;1.17;;;;;;;;;;5154969;27;20233;-16
2022/04/08 13:21:18;;;;;;;5.63;1.55;;;;;;;;;;5150485;27;20238;-16
2022/04/08 13:23:45;;;;;;;6.85;1.40;;;;;;;;;;5150963;27;20239;-16
2022/04/08 13:26:13;;;;;;;7.60;1.17;;;;;;;;;;5163019;27;20707;-16
2022/04/08 13:28:40;;;;;;;7.50;1.33;;;;;;;;;;5148160;27;20238;-16
2022/04/08 13:31:07;;;;;;;5.68;1.40;;;;;;;;;;5157248;27;20227;-16
2022/04/08 13:33:35;;;;;;;5.85;1.45;;;;;;;;;;5150053;27;20694;-16
2022/04/08 13:36:03;;;;;;;6.90;1.35;;;;;;;;;;5157544;27;20750;-19
2022/04/08 13:38:31;;;;;;;3.95;1.50;;;;;;;;;;5151703;27;20235;-16
2022/04/08 13:41:00;;;;;;;5.00;1.30;;;;;;;;;;5159978;27;20235;-16
2022/04/08 13:43:28;;;;;;;9.55;2.03;;;;;;;;;;5150602;27;21007;-16
2022/04/08 13:45:55;;;;;;;4.60;1.67;;;;;;;;;;5152401;27;20226;-16
2022/04/08 13:48:23;;;;;;;9.48;1.52;;;;;;;;;;5159313;27;20251;-16
2022/04/08 13:50:50;;;;;;;5.25;1.50;;;;;;;;;;5152190;27;20238;-16
2022/04/08 13:53:18;;;;;;;3.28;1.00;;;;;;;;;;5152444;27;20229;-16
2022/04/08 13:55:46;;;;;;;4.60;1.20;;;;;;;;;;5149616;27;20230;-16
2022/04/08 13:58:13;;;;;;;5.20;1.40;;;;;;;;;;5154089;27;20223;-16
2022/04/08 14:00:41;;;;;;;5.85;1.30;;;;;;;;;;5152828;27;20227;-16
2022/04/08 14:03:09;;;;;;;4.57;1.48;;;;;;;;;;5156193;27;20242;-16
2022/04/08 14:05:37;;;;;;;4.20;1.35;;;;;;;;;;5151426;27;20236;-16
2022/04/08 14:08:04;;;;;;;6.38;1.20;;;;;;;;;;5156199;27;20328;-16
2022/04/08 14:10:32;;;;;;;5.55;1.00;;;;;;;;;;5154684;27;20227;-16
2022/04/08 14:13:03;;;;;;;6.80;1.23;;;;;;;;;;5150982;27;20231;-16
2022/04/08 14:15:31;;;;;;;4.93;1.30;;;;;;;;;;5150260;27;20226;-16
2022/04/08 14:17:58;;;;;;;5.93;1.20;;;;;;;;;;5149840;27;20238;-16
2022/04/08 14:20:27;;;;;;;10.25;1.30;;;;;;;;;;5155310;27;20227;-16
2022/04/08 14:23:00;;;;;;;3.00;1.02;;;;;;;;;;5155978;27;20629;-17
2022/04/08 14:25:28;;;;;;;5.80;1.33;;;;;;;;;;5152735;27;20480;-16
2022/04/08 14:27:58;;;;;;;8.32;1.30;;;;;;;;;;5154835;27;20501;-16
2022/04/08 14:30:26;;;;;;;7.03;1.40;;;;;;;;;;5151578;27;20403;-16
2022/04/08 14:32:54;;;;;;;8.90;1.30;;;;;;;;;;5151419;27;20226;-16
2022/04/08 14:35:23;;;;;;;9.05;1.70;;;;;;;;;;5146938;27;20743;-16
2022/04/08 14:37:51;;;;;;;5.13;1.48;;;;;;;;;;5151703;27;20226;-16
2022/04/08 14:40:18;;;;;;;7.97;1.33;;;;;;;;;;5147981;27;20747;-16
2022/04/08 14:42:45;;;;;;;6.93;1.30;;;;;;;;;;5150265;27;20230;-16
2022/04/08 14:45:12;;;;;;;3.72;1.00;;;;;;;;;;5153209;27;21089;-16
2022/04/08 14:47:42;;;;;;;3.55;1.00;;;;;;;;;;5152990;27;20237;-16